createdAt,value
2018-08-16T00:00:14.981Z,829.00
2018-08-16T00:01:15.731Z,831.00
2018-08-16T00:02:17.631Z,830.00
2018-08-16T00:03:18.486Z,828.00
2018-08-16T00:04:18.287Z,831.00
2018-08-16T00:05:20.126Z,831.00
2018-08-16T00:06:21.121Z,829.00
2018-08-16T00:07:20.960Z,829.00
2018-08-16T00:08:21.761Z,822.00
2018-08-16T00:09:23.585Z,824.00
2018-08-16T00:10:23.388Z,825.00
2018-08-16T00:11:24.177Z,828.00
2018-08-16T00:12:25.950Z,825.00
2018-08-16T00:13:26.724Z,824.00
2018-08-16T00:14:27.499Z,824.00
2018-08-16T00:15:28.271Z,825.00
2018-08-16T00:16:29.071Z,823.00
2018-08-16T00:17:29.846Z,826.00
2018-08-16T00:18:30.622Z,823.00
2018-08-16T00:19:31.396Z,825.00
2018-08-16T00:20:32.167Z,824.00
2018-08-16T00:21:32.966Z,824.00
2018-08-16T00:22:33.744Z,826.00
2018-08-16T00:23:34.518Z,824.00
2018-08-16T00:24:35.296Z,826.00
2018-08-16T00:25:36.066Z,823.00
2018-08-16T00:26:36.868Z,823.00
2018-08-16T00:27:37.643Z,823.00
2018-08-16T00:28:38.804Z,822.00
2018-08-16T00:33:38.273Z,836.00
2018-08-16T00:34:39.047Z,825.00
2018-08-16T00:35:39.817Z,824.00
2018-08-16T00:36:41.588Z,823.00
2018-08-16T00:37:41.361Z,822.00
2018-08-16T00:38:42.156Z,822.00
2018-08-16T00:39:42.927Z,823.00
2018-08-16T00:40:43.705Z,823.00
2018-08-16T00:41:44.470Z,824.00
2018-08-16T00:42:45.246Z,824.00
2018-08-16T00:43:46.052Z,823.00
2018-08-16T00:44:46.820Z,825.00
2018-08-16T00:45:47.646Z,825.00
2018-08-16T00:46:47.369Z,830.00
2018-08-16T00:47:49.154Z,829.00
2018-08-16T00:48:49.946Z,826.00
2018-08-16T00:49:50.742Z,829.00
2018-08-16T00:50:51.500Z,830.00
2018-08-16T00:51:52.273Z,831.00
2018-08-16T00:52:53.046Z,833.00
2018-08-16T00:53:53.847Z,824.00
2018-08-16T00:54:54.629Z,829.00
2018-08-16T00:55:55.396Z,828.00
2018-08-16T00:56:56.179Z,825.00
2018-08-16T00:57:56.948Z,826.00
2018-08-16T00:58:57.753Z,829.00
2018-08-16T00:59:58.525Z,825.00
2018-08-16T01:00:59.297Z,825.00
2018-08-16T01:02:00.070Z,825.00
2018-08-16T01:03:00.841Z,824.00
2018-08-16T01:04:01.644Z,824.00
2018-08-16T01:05:02.418Z,828.00
2018-08-16T01:06:03.184Z,828.00
2018-08-16T01:07:04.017Z,825.00
2018-08-16T01:08:03.738Z,828.00
2018-08-16T01:09:05.535Z,825.00
2018-08-16T01:10:06.305Z,829.00
2018-08-16T01:11:07.078Z,831.00
2018-08-16T01:12:07.848Z,830.00
2018-08-16T01:13:08.623Z,826.00
2018-08-16T01:14:09.424Z,826.00
2018-08-16T01:15:10.195Z,829.00
2018-08-16T01:16:10.976Z,826.00
2018-08-16T01:17:11.752Z,828.00
2018-08-16T01:18:12.519Z,826.00
2018-08-16T01:19:13.326Z,825.00
2018-08-16T01:20:14.132Z,829.00
2018-08-16T01:21:13.875Z,826.00
2018-08-16T01:22:15.646Z,828.00
2018-08-16T01:23:16.427Z,828.00
2018-08-16T01:24:17.225Z,825.00
2018-08-16T01:25:17.998Z,829.00
2018-08-16T01:26:18.783Z,825.00
2018-08-16T01:27:19.548Z,825.00
2018-08-16T01:28:20.328Z,825.00
2018-08-16T01:29:21.121Z,828.00
2018-08-16T01:30:21.903Z,828.00
2018-08-16T01:31:22.675Z,824.00
2018-08-16T01:32:23.453Z,824.00
2018-08-16T01:33:24.223Z,829.00
2018-08-16T01:34:25.027Z,822.00
2018-08-16T01:35:25.817Z,828.00
2018-08-16T01:36:26.577Z,825.00
2018-08-16T01:37:27.352Z,824.00
2018-08-16T01:38:28.129Z,826.00
2018-08-16T01:39:28.933Z,828.00
2018-08-16T01:40:29.702Z,830.00
2018-08-16T01:41:30.570Z,832.00
2018-08-16T01:42:30.268Z,829.00
2018-08-16T01:43:32.039Z,830.00
2018-08-16T01:44:32.843Z,830.00
2018-08-16T01:45:33.699Z,831.00
2018-08-16T01:46:33.401Z,832.00
2018-08-16T01:47:35.172Z,830.00
2018-08-16T01:48:35.953Z,829.00
2018-08-16T01:49:36.755Z,834.00
2018-08-16T01:50:37.527Z,835.00
2018-08-16T01:51:38.302Z,835.00
2018-08-16T01:52:39.078Z,832.00
2018-08-16T01:53:39.849Z,825.00
2018-08-16T01:54:40.651Z,831.00
2018-08-16T01:55:41.427Z,832.00
2018-08-16T01:56:42.199Z,831.00
2018-08-16T01:57:42.980Z,826.00
2018-08-16T01:58:43.751Z,829.00
2018-08-16T01:59:44.556Z,826.00
2018-08-16T02:00:45.326Z,826.00
2018-08-16T02:01:46.106Z,828.00
2018-08-16T02:02:46.878Z,825.00
2018-08-16T02:03:47.656Z,830.00
2018-08-16T02:04:48.458Z,829.00
2018-08-16T02:05:49.230Z,826.00
2018-08-16T02:06:50.003Z,826.00
2018-08-16T02:07:50.812Z,825.00
2018-08-16T02:08:51.559Z,828.00
2018-08-16T02:09:52.358Z,825.00
2018-08-16T02:10:53.127Z,829.00
2018-08-16T02:11:53.904Z,829.00
2018-08-16T02:12:54.697Z,830.00
2018-08-16T02:13:55.465Z,828.00
2018-08-16T02:14:56.280Z,829.00
2018-08-16T02:15:57.036Z,829.00
2018-08-16T02:16:57.807Z,831.00
2018-08-16T02:17:58.588Z,826.00
2018-08-16T02:18:59.361Z,826.00
2018-08-16T02:20:00.178Z,826.00
2018-08-16T02:21:00.929Z,826.00
2018-08-16T02:22:01.704Z,825.00
2018-08-16T02:23:02.478Z,828.00
2018-08-16T02:24:03.252Z,825.00
2018-08-16T02:25:05.927Z,825.00
2018-08-16T02:35:35.613Z,831.00
2018-08-16T02:36:36.399Z,826.00
2018-08-16T02:37:37.167Z,828.00
2018-08-16T02:38:37.937Z,829.00
2018-08-16T02:39:38.709Z,826.00
2018-08-16T02:40:39.488Z,829.00
2018-08-16T02:41:40.282Z,831.00
2018-08-16T02:42:41.067Z,829.00
2018-08-16T02:43:41.834Z,828.00
2018-08-16T02:44:42.611Z,828.00
2018-08-16T02:45:43.382Z,826.00
2018-08-16T02:46:44.190Z,831.00
2018-08-16T02:47:44.965Z,830.00
2018-08-16T02:48:45.738Z,828.00
2018-08-16T02:49:46.514Z,830.00
2018-08-16T02:50:47.295Z,829.00
2018-08-16T02:51:48.090Z,829.00
2018-08-16T02:52:48.867Z,832.00
2018-08-16T02:53:49.640Z,830.00
2018-08-16T02:54:50.413Z,829.00
2018-08-16T02:55:51.192Z,823.00
2018-08-16T02:56:51.993Z,828.00
2018-08-16T02:57:52.767Z,828.00
2018-08-16T02:58:53.542Z,830.00
2018-08-16T02:59:54.312Z,826.00
2018-08-16T03:00:55.090Z,826.00
2018-08-16T03:01:55.885Z,829.00
2018-08-16T03:02:56.664Z,829.00
2018-08-16T03:03:57.433Z,829.00
2018-08-16T03:04:58.221Z,830.00
2018-08-16T03:05:59.034Z,828.00
2018-08-16T03:06:58.791Z,831.00
2018-08-16T03:08:00.563Z,832.00
2018-08-16T03:09:01.337Z,832.00
2018-08-16T03:10:03.104Z,832.00
2018-08-16T03:11:02.882Z,832.00
2018-08-16T03:12:03.673Z,829.00
2018-08-16T03:13:04.458Z,832.00
2018-08-16T03:14:05.221Z,828.00
2018-08-16T03:15:05.993Z,831.00
2018-08-16T03:16:06.765Z,825.00
2018-08-16T03:17:07.560Z,829.00
2018-08-16T03:18:08.345Z,831.00
2018-08-16T03:19:09.112Z,826.00
2018-08-16T03:20:09.887Z,831.00
2018-08-16T03:21:10.662Z,826.00
2018-08-16T03:22:11.461Z,831.00
2018-08-16T03:23:12.239Z,829.00
2018-08-16T03:24:13.011Z,831.00
2018-08-16T03:25:13.788Z,831.00
2018-08-16T03:26:14.561Z,831.00
2018-08-16T03:27:15.363Z,831.00
2018-08-16T03:28:16.136Z,832.00
2018-08-16T03:29:16.913Z,830.00
2018-08-16T03:30:17.697Z,832.00
2018-08-16T03:31:18.458Z,831.00
2018-08-16T03:32:19.257Z,828.00
2018-08-16T03:33:20.032Z,832.00
2018-08-16T03:34:20.801Z,832.00
2018-08-16T03:35:21.681Z,831.00
2018-08-16T03:36:21.396Z,831.00
2018-08-16T03:37:22.149Z,834.00
2018-08-16T03:38:23.922Z,831.00
2018-08-16T03:39:24.690Z,832.00
2018-08-16T03:40:25.467Z,831.00
2018-08-16T03:41:26.237Z,834.00
2018-08-16T03:42:27.042Z,832.00
2018-08-16T03:43:27.811Z,833.00
2018-08-16T03:44:28.592Z,832.00
2018-08-16T03:45:29.373Z,833.00
2018-08-16T03:46:30.144Z,833.00
2018-08-16T03:47:30.939Z,834.00
2018-08-16T03:48:31.712Z,833.00
2018-08-16T03:49:32.490Z,834.00
2018-08-16T03:50:33.264Z,832.00
2018-08-16T03:51:34.042Z,834.00
2018-08-16T03:52:34.841Z,835.00
2018-08-16T03:53:35.615Z,836.00
2018-08-16T03:54:36.389Z,833.00
2018-08-16T03:55:37.165Z,833.00
2018-08-16T03:56:37.936Z,833.00
2018-08-16T03:57:38.740Z,836.00
2018-08-16T03:58:39.515Z,834.00
2018-08-16T03:59:40.291Z,835.00
2018-08-16T04:00:41.068Z,834.00
2018-08-16T04:01:41.838Z,837.00
2018-08-16T04:02:42.641Z,838.00
2018-08-16T04:03:43.421Z,838.00
2018-08-16T04:04:44.193Z,835.00
2018-08-16T04:05:44.966Z,840.00
2018-08-16T04:06:45.741Z,835.00
2018-08-16T04:07:46.551Z,838.00
2018-08-16T04:08:47.317Z,835.00
2018-08-16T04:09:48.091Z,837.00
2018-08-16T04:10:48.864Z,834.00
2018-08-16T04:11:49.642Z,835.00
2018-08-16T04:12:50.441Z,832.00
2018-08-16T04:13:51.215Z,837.00
2018-08-16T04:14:51.991Z,835.00
2018-08-16T04:15:52.788Z,835.00
2018-08-16T04:16:53.553Z,834.00
2018-08-16T04:17:54.349Z,840.00
2018-08-16T04:18:55.121Z,835.00
2018-08-16T04:19:55.896Z,837.00
2018-08-16T04:20:56.670Z,836.00
2018-08-16T04:21:57.442Z,841.00
2018-08-16T04:22:58.242Z,840.00
2018-08-16T04:23:59.018Z,841.00
2018-08-16T04:25:00.172Z,836.00
2018-08-16T04:26:00.373Z,840.00
2018-08-16T04:26:59.813Z,834.00
2018-08-16T04:39:39.626Z,834.00
2018-08-16T04:40:40.400Z,832.00
2018-08-16T04:41:44.148Z,837.00
2018-08-16T04:42:43.737Z,834.00
2018-08-16T04:44:08.188Z,846.00
2018-08-16T04:45:09.958Z,834.00
2018-08-16T04:46:10.732Z,835.00
2018-08-16T04:47:11.503Z,834.00
2018-08-16T04:48:12.318Z,835.00
2018-08-16T04:49:12.075Z,833.00
2018-08-16T04:50:13.845Z,834.00
2018-08-16T04:51:14.615Z,831.00
2018-08-16T04:52:15.388Z,834.00
2018-08-16T04:53:16.171Z,831.00
2018-08-16T04:54:16.973Z,833.00
2018-08-16T04:55:17.738Z,832.00
2018-08-16T04:56:18.519Z,833.00
2018-08-16T04:57:19.303Z,833.00
2018-08-16T04:58:20.071Z,830.00
2018-08-16T04:59:20.863Z,833.00
2018-08-16T05:00:21.638Z,835.00
2018-08-16T05:01:22.407Z,833.00
2018-08-16T05:02:23.179Z,832.00
2018-08-16T05:03:23.954Z,834.00
2018-08-16T05:04:25.581Z,832.00
2018-08-16T05:05:24.274Z,834.00
2018-08-16T05:06:26.048Z,832.00
2018-08-16T05:07:26.831Z,833.00
2018-08-16T05:08:27.602Z,830.00
2018-08-16T05:09:28.411Z,835.00
2018-08-16T05:10:29.167Z,832.00
2018-08-16T05:11:29.940Z,834.00
2018-08-16T05:12:30.714Z,832.00
2018-08-16T05:13:31.487Z,834.00
2018-08-16T05:14:32.290Z,834.00
2018-08-16T05:15:33.061Z,837.00
2018-08-16T05:16:32.840Z,832.00
2018-08-16T05:17:34.607Z,834.00
2018-08-16T05:18:35.381Z,832.00
2018-08-16T05:19:36.185Z,834.00
2018-08-16T05:20:35.952Z,832.00
2018-08-16T05:21:37.743Z,833.00
2018-08-16T05:22:38.520Z,828.00
2018-08-16T05:23:39.291Z,831.00
2018-08-16T05:24:40.096Z,824.00
2018-08-16T05:25:40.869Z,825.00
2018-08-16T05:26:41.645Z,818.00
2018-08-16T05:27:42.415Z,819.00
2018-08-16T05:28:43.192Z,812.00
2018-08-16T05:29:43.990Z,813.00
2018-08-16T05:30:44.767Z,807.00
2018-08-16T05:31:45.658Z,807.00
2018-08-16T05:32:45.313Z,802.00
2018-08-16T05:33:47.089Z,802.00
2018-08-16T05:34:47.889Z,796.00
2018-08-16T05:35:48.666Z,797.00
2018-08-16T05:36:49.436Z,792.00
2018-08-16T05:37:50.213Z,794.00
2018-08-16T05:38:50.994Z,788.00
2018-08-16T05:39:51.783Z,788.00
2018-08-16T05:40:52.559Z,784.00
2018-08-16T05:41:53.329Z,786.00
2018-08-16T05:42:54.123Z,780.00
2018-08-16T05:43:54.875Z,782.00
2018-08-16T05:44:55.678Z,774.00
2018-08-16T05:45:56.449Z,777.00
2018-08-16T05:46:57.231Z,773.00
2018-08-16T05:47:57.999Z,776.00
2018-08-16T05:48:58.773Z,770.00
2018-08-16T05:49:59.576Z,774.00
2018-08-16T05:51:00.352Z,769.00
2018-08-16T05:52:01.125Z,774.00
2018-08-16T05:53:01.918Z,768.00
2018-08-16T05:54:02.670Z,773.00
2018-08-16T05:55:03.467Z,768.00
2018-08-16T05:56:04.238Z,771.00
2018-08-16T05:57:06.010Z,765.00
2018-08-16T05:58:05.784Z,768.00
2018-08-16T05:59:06.555Z,760.00
2018-08-16T06:00:07.355Z,764.00
2018-08-16T06:01:08.127Z,758.00
2018-08-16T06:02:08.905Z,762.00
2018-08-16T06:03:09.681Z,754.00
2018-08-16T06:04:10.454Z,759.00
2018-08-16T06:05:11.251Z,753.00
2018-08-16T06:06:12.023Z,756.00
2018-08-16T06:07:12.797Z,760.00
2018-08-16T06:08:13.573Z,754.00
2018-08-16T06:09:14.346Z,760.00
2018-08-16T06:10:15.143Z,751.00
2018-08-16T06:11:15.916Z,759.00
2018-08-16T06:12:16.699Z,751.00
2018-08-16T06:13:17.467Z,758.00
2018-08-16T06:14:18.244Z,757.00
2018-08-16T06:15:19.126Z,754.00
2018-08-16T06:16:18.819Z,748.00
2018-08-16T06:17:20.742Z,752.00
2018-08-16T06:18:20.471Z,746.00
2018-08-16T06:19:22.237Z,751.00
2018-08-16T06:20:23.040Z,746.00
2018-08-16T06:21:23.809Z,748.00
2018-08-16T06:22:24.614Z,756.00
2018-08-16T06:23:25.456Z,750.00
2018-08-16T06:24:25.273Z,756.00
2018-08-16T06:25:26.044Z,749.00
2018-08-16T06:26:27.811Z,754.00
2018-08-16T06:27:28.592Z,745.00
2018-08-16T06:28:29.445Z,751.00
2018-08-16T06:29:29.292Z,744.00
2018-08-16T06:30:30.251Z,749.00
2018-08-16T06:31:31.061Z,744.00
2018-08-16T06:32:31.902Z,748.00
2018-08-16T06:33:32.626Z,740.00
2018-08-16T06:34:34.422Z,747.00
2018-08-16T06:35:35.297Z,737.00
2018-08-16T06:36:36.097Z,745.00
2018-08-16T06:37:35.872Z,738.00
2018-08-16T06:38:36.660Z,744.00
2018-08-16T06:39:37.562Z,737.00
2018-08-16T06:40:38.437Z,744.00
2018-08-16T06:41:39.174Z,737.00
2018-08-16T06:42:40.964Z,744.00
2018-08-16T06:43:40.758Z,735.00
2018-08-16T06:44:42.628Z,741.00
2018-08-16T06:45:42.516Z,734.00
2018-08-16T06:46:44.340Z,740.00
2018-08-16T06:47:45.142Z,734.00
2018-08-16T06:48:46.051Z,739.00
2018-08-16T06:49:45.753Z,730.00
2018-08-16T06:50:47.552Z,738.00
2018-08-16T06:51:48.700Z,732.00
2018-08-16T06:52:49.798Z,737.00
2018-08-16T06:53:48.095Z,736.00
2018-08-16T06:57:04.496Z,744.00
2018-08-16T06:58:04.373Z,736.00
2018-08-16T06:59:05.189Z,728.00
2018-08-16T07:00:05.932Z,736.00
2018-08-16T07:01:07.700Z,728.00
2018-08-16T07:02:08.684Z,736.00
2018-08-16T07:03:08.377Z,727.00
2018-08-16T07:04:10.150Z,736.00
2018-08-16T07:05:10.921Z,727.00
2018-08-16T07:06:11.692Z,735.00
2018-08-16T07:07:12.560Z,726.00
2018-08-16T07:08:12.306Z,735.00
2018-08-16T07:09:14.070Z,727.00
2018-08-16T07:10:14.845Z,735.00
2018-08-16T07:11:15.617Z,726.00
2018-08-16T07:12:16.631Z,734.00
2018-08-16T07:13:16.222Z,726.00
2018-08-16T07:14:18.013Z,733.00
2018-08-16T07:15:18.976Z,724.00
2018-08-16T07:16:19.667Z,732.00
2018-08-16T07:17:20.526Z,720.00
2018-08-16T07:18:20.294Z,732.00
2018-08-16T07:19:22.079Z,721.00
2018-08-16T07:20:23.002Z,732.00
2018-08-16T07:21:22.719Z,732.00
2018-08-16T07:22:24.511Z,724.00
2018-08-16T07:23:25.285Z,734.00
2018-08-16T07:24:26.140Z,725.00
2018-08-16T07:25:25.918Z,734.00
2018-08-16T07:26:26.645Z,724.00
2018-08-16T07:27:28.545Z,732.00
2018-08-16T07:28:29.333Z,727.00
2018-08-16T07:29:30.355Z,742.00
2018-08-16T07:30:30.141Z,733.00
2018-08-16T07:31:30.886Z,739.00
2018-08-16T07:32:32.804Z,730.00
2018-08-16T07:33:33.570Z,738.00
2018-08-16T07:34:34.327Z,729.00
2018-08-16T07:35:35.101Z,738.00
2018-08-16T07:36:35.899Z,728.00
2018-08-16T07:37:35.750Z,739.00
2018-08-16T07:38:37.633Z,732.00
2018-08-16T07:39:37.465Z,740.00
2018-08-16T07:40:38.162Z,734.00
2018-08-16T07:41:39.933Z,745.00
2018-08-16T07:42:39.730Z,738.00
2018-08-16T07:43:41.650Z,747.00
2018-08-16T07:44:41.511Z,739.00
2018-08-16T07:45:42.363Z,748.00
2018-08-16T07:46:43.125Z,739.00
2018-08-16T07:47:43.864Z,750.00
2018-08-16T07:48:45.632Z,746.00
2018-08-16T07:49:46.408Z,754.00
2018-08-16T07:50:47.183Z,746.00
2018-08-16T07:51:48.069Z,747.00
2018-08-16T07:52:47.747Z,748.00
2018-08-16T07:53:49.524Z,750.00
2018-08-16T07:54:50.302Z,752.00
2018-08-16T07:55:51.076Z,762.00
2018-08-16T07:56:51.905Z,754.00
2018-08-16T07:57:51.653Z,753.00
2018-08-16T07:58:53.425Z,754.00
2018-08-16T07:59:54.201Z,757.00
2018-08-16T08:00:54.973Z,768.00
2018-08-16T08:01:55.754Z,760.00
2018-08-16T08:02:56.549Z,761.00
2018-08-16T08:03:57.330Z,764.00
2018-08-16T08:04:58.104Z,765.00
2018-08-16T08:05:58.876Z,774.00
2018-08-16T08:06:59.648Z,763.00
2018-08-16T08:08:00.456Z,764.00
2018-08-16T08:09:01.365Z,765.00
2018-08-16T08:10:01.001Z,766.00
2018-08-16T08:11:02.780Z,776.00
2018-08-16T08:12:03.549Z,766.00
2018-08-16T08:13:04.353Z,766.00
2018-08-16T08:14:05.128Z,769.00
2018-08-16T08:15:05.902Z,770.00
2018-08-16T08:16:06.676Z,780.00
2018-08-16T08:17:07.451Z,780.00
2018-08-16T08:18:08.256Z,773.00
2018-08-16T08:19:08.027Z,784.00
2018-08-16T08:20:09.804Z,773.00
2018-08-16T08:21:10.578Z,783.00
2018-08-16T08:22:11.516Z,774.00
2018-08-16T08:23:11.244Z,784.00
2018-08-16T08:24:13.018Z,777.00
2018-08-16T08:25:13.809Z,785.00
2018-08-16T08:26:14.566Z,777.00
2018-08-16T08:27:15.355Z,786.00
2018-08-16T08:28:16.133Z,778.00
2018-08-16T08:29:16.914Z,786.00
2018-08-16T08:30:17.687Z,777.00
2018-08-16T08:31:18.457Z,786.00
2018-08-16T08:32:19.234Z,776.00
2018-08-16T08:33:20.031Z,786.00
2018-08-16T08:34:20.806Z,777.00
2018-08-16T08:35:21.580Z,787.00
2018-08-16T08:36:22.357Z,778.00
2018-08-16T08:37:23.131Z,788.00
2018-08-16T08:38:23.954Z,787.00
2018-08-16T08:39:24.705Z,781.00
2018-08-16T08:40:25.480Z,788.00
2018-08-16T08:41:26.255Z,780.00
2018-08-16T08:42:27.029Z,788.00
2018-08-16T08:43:27.833Z,781.00
2018-08-16T08:44:28.607Z,787.00
2018-08-16T08:45:29.386Z,780.00
2018-08-16T08:46:30.158Z,788.00
2018-08-16T08:47:30.934Z,778.00
2018-08-16T08:48:31.734Z,788.00
2018-08-16T08:49:32.507Z,778.00
2018-08-16T08:50:33.284Z,788.00
2018-08-16T08:51:34.057Z,778.00
2018-08-16T08:52:34.830Z,788.00
2018-08-16T08:53:35.633Z,781.00
2018-08-16T08:54:36.406Z,788.00
2018-08-16T08:55:37.187Z,778.00
2018-08-16T08:56:37.955Z,788.00
2018-08-16T08:57:38.738Z,778.00
2018-08-16T08:58:39.531Z,790.00
2018-08-16T08:59:40.309Z,780.00
2018-08-16T09:00:41.084Z,788.00
2018-08-16T09:01:41.859Z,778.00
2018-08-16T09:02:42.635Z,788.00
2018-08-16T09:03:43.447Z,778.00
2018-08-16T09:04:44.221Z,788.00
2018-08-16T09:05:45.545Z,778.00
2018-08-16T09:06:44.380Z,792.00
2018-08-16T09:07:45.427Z,778.00
2018-08-16T09:08:53.879Z,794.00
2018-08-16T09:09:54.650Z,783.00
2018-08-16T09:10:55.421Z,794.00
2018-08-16T09:11:56.192Z,784.00
2018-08-16T09:12:56.963Z,794.00
2018-08-16T09:13:57.760Z,784.00
2018-08-16T09:14:58.610Z,794.00
2018-08-16T09:15:58.315Z,782.00
2018-08-16T09:17:00.088Z,794.00
2018-08-16T09:18:00.861Z,782.00
2018-08-16T09:19:01.660Z,794.00
2018-08-16T09:20:02.437Z,783.00
2018-08-16T09:21:03.210Z,794.00
2018-08-16T09:22:03.985Z,783.00
2018-08-16T09:23:04.760Z,794.00
2018-08-16T09:24:05.637Z,782.00
2018-08-16T09:25:05.340Z,793.00
2018-08-16T09:26:07.115Z,781.00
2018-08-16T09:27:06.890Z,792.00
2018-08-16T09:28:08.664Z,781.00
2018-08-16T09:29:09.464Z,792.00
2018-08-16T09:30:10.240Z,780.00
2018-08-16T09:31:11.135Z,792.00
2018-08-16T09:32:10.785Z,782.00
2018-08-16T09:33:12.564Z,793.00
2018-08-16T09:34:13.359Z,793.00
2018-08-16T09:35:13.136Z,793.00
2018-08-16T09:36:14.910Z,782.00
2018-08-16T09:37:14.702Z,793.00
2018-08-16T09:38:16.455Z,780.00
2018-08-16T09:39:17.360Z,793.00
2018-08-16T09:40:17.049Z,782.00
2018-08-16T09:41:18.817Z,794.00
2018-08-16T09:42:19.589Z,782.00
2018-08-16T09:43:20.361Z,794.00
2018-08-16T09:44:21.170Z,780.00
2018-08-16T09:45:22.085Z,794.00
2018-08-16T09:46:21.710Z,780.00
2018-08-16T09:47:23.571Z,780.00
2018-08-16T09:48:23.272Z,794.00
2018-08-16T09:49:25.068Z,778.00
2018-08-16T09:50:25.846Z,794.00
2018-08-16T09:51:26.627Z,781.00
2018-08-16T09:52:27.394Z,795.00
2018-08-16T09:53:28.165Z,778.00
2018-08-16T09:54:28.958Z,781.00
2018-08-16T09:55:29.750Z,795.00
2018-08-16T09:56:30.533Z,782.00
2018-08-16T09:57:31.300Z,794.00
2018-08-16T09:58:32.078Z,783.00
2018-08-16T09:59:32.869Z,797.00
2018-08-16T10:00:33.641Z,784.00
2018-08-16T10:01:34.416Z,798.00
2018-08-16T10:02:35.193Z,787.00
2018-08-16T10:03:35.963Z,797.00
2018-08-16T10:04:36.766Z,785.00
2018-08-16T10:05:37.538Z,783.00
2018-08-16T10:06:38.311Z,796.00
2018-08-16T10:07:39.088Z,784.00
2018-08-16T10:08:39.859Z,795.00
2018-08-16T10:09:41.656Z,778.00
2018-08-16T10:10:41.433Z,794.00
2018-08-16T10:11:42.200Z,778.00
2018-08-16T10:12:42.975Z,794.00
2018-08-16T10:13:43.749Z,780.00
2018-08-16T10:14:44.542Z,794.00
2018-08-16T10:15:45.318Z,780.00
2018-08-16T10:16:46.091Z,795.00
2018-08-16T10:17:46.866Z,782.00
2018-08-16T10:18:47.642Z,795.00
2018-08-16T10:19:48.441Z,778.00
2018-08-16T10:20:49.224Z,794.00
2018-08-16T10:21:48.992Z,778.00
2018-08-16T10:22:51.765Z,794.00
2018-08-16T10:23:51.537Z,778.00
2018-08-16T10:24:53.331Z,794.00
2018-08-16T10:25:53.112Z,780.00
2018-08-16T10:26:53.907Z,793.00
2018-08-16T10:27:54.663Z,777.00
2018-08-16T10:28:55.429Z,796.00
2018-08-16T10:29:56.223Z,785.00
2018-08-16T10:30:56.997Z,796.00
2018-08-16T10:31:57.769Z,783.00
2018-08-16T10:32:58.548Z,796.00
2018-08-16T10:33:59.318Z,781.00
2018-08-16T10:35:00.115Z,797.00
2018-08-16T10:36:00.887Z,783.00
2018-08-16T10:37:01.680Z,796.00
2018-08-16T10:38:01.447Z,782.00
2018-08-16T10:39:03.218Z,794.00
2018-08-16T10:40:04.019Z,781.00
2018-08-16T10:41:04.794Z,794.00
2018-08-16T10:42:04.576Z,782.00
2018-08-16T10:43:06.352Z,795.00
2018-08-16T10:44:07.122Z,781.00
2018-08-16T10:45:07.920Z,793.00
2018-08-16T10:46:08.690Z,778.00
2018-08-16T10:47:09.469Z,793.00
2018-08-16T10:48:10.240Z,777.00
2018-08-16T10:49:11.018Z,793.00
2018-08-16T10:50:11.823Z,781.00
2018-08-16T10:51:12.595Z,794.00
2018-08-16T10:52:13.378Z,778.00
2018-08-16T10:53:14.141Z,793.00
2018-08-16T10:54:14.926Z,776.00
2018-08-16T11:01:49.373Z,812.00
2018-08-16T11:02:50.145Z,821.00
2018-08-16T11:03:50.927Z,809.00
2018-08-16T11:04:57.790Z,810.00
2018-08-16T11:05:51.481Z,808.00
2018-08-16T11:06:53.285Z,806.00
2018-08-16T11:07:54.052Z,805.00
2018-08-16T11:10:50.116Z,823.00
2018-08-16T11:11:30.269Z,823.00
2018-08-16T11:12:39.931Z,824.00
2018-08-16T11:26:04.407Z,805.00
2018-08-16T11:26:18.127Z,811.00
2018-08-16T11:26:29.017Z,810.00
2018-08-16T11:26:40.523Z,809.00
2018-08-16T11:26:51.579Z,806.00
2018-08-16T11:27:02.667Z,809.00
2018-08-16T11:27:13.595Z,810.00
2018-08-16T11:27:25.074Z,807.00
2018-08-16T11:27:37.232Z,801.00
2018-08-16T11:27:47.093Z,807.00
2018-08-16T11:27:59.525Z,807.00
2018-08-16T11:28:11.003Z,806.00
2018-08-16T11:28:22.530Z,806.00
2018-08-16T11:28:33.555Z,806.00
2018-08-16T11:28:44.621Z,806.00
2018-08-16T11:28:57.556Z,796.00
2018-08-16T11:29:09.214Z,805.00
2018-08-16T11:29:19.545Z,805.00
2018-08-16T11:29:31.656Z,805.00
2018-08-16T11:29:42.882Z,805.00
2018-08-16T11:29:54.648Z,805.00
2018-08-16T11:30:06.015Z,804.00
2018-08-16T11:30:17.553Z,804.00
2018-08-16T11:30:29.042Z,804.00
2018-08-16T11:30:41.651Z,804.00
2018-08-16T11:30:52.790Z,802.00
2018-08-16T11:31:10.384Z,804.00
2018-08-16T11:33:40.789Z,804.00
2018-08-16T11:34:34.114Z,804.00
2018-08-16T11:36:45.344Z,801.00
2018-08-16T11:37:47.320Z,804.00
2018-08-16T11:38:46.271Z,801.00
2018-08-16T11:39:46.313Z,802.00
2018-08-16T11:40:47.915Z,793.00
2018-08-16T11:41:47.586Z,800.00
2018-08-16T11:42:49.317Z,800.00
2018-08-16T11:43:57.991Z,800.00
2018-08-16T11:44:16.223Z,801.00
2018-08-16T11:45:16.671Z,802.00
2018-08-16T11:46:17.272Z,804.00
2018-08-16T11:47:17.852Z,802.00
2018-08-16T11:48:18.432Z,802.00
2018-08-16T11:49:42.053Z,804.00
2018-08-16T11:51:35.110Z,807.00
2018-08-16T11:52:36.651Z,807.00
2018-08-16T11:53:36.872Z,805.00
2018-08-16T11:54:37.149Z,804.00
2018-08-16T11:55:37.672Z,801.00
2018-08-16T11:56:37.836Z,794.00
2018-08-16T11:57:38.195Z,801.00
2018-08-16T12:15:49.072Z,806.00
2018-08-16T12:16:58.666Z,796.00
2018-08-16T12:17:50.378Z,795.00
2018-08-16T12:18:49.665Z,796.00
2018-08-16T12:19:53.893Z,794.00
2018-08-16T12:20:53.959Z,795.00
2018-08-16T12:21:51.223Z,795.00
2018-08-16T12:22:51.477Z,796.00
2018-08-16T12:23:51.731Z,796.00
2018-08-16T12:24:51.968Z,790.00
2018-08-16T12:25:52.219Z,794.00
2018-08-16T12:26:58.520Z,794.00
2018-08-16T12:33:11.202Z,807.00
2018-08-16T12:34:10.494Z,796.00
2018-08-16T12:35:10.801Z,796.00
2018-08-16T12:36:11.278Z,797.00
2018-08-16T12:37:11.842Z,796.00
2018-08-16T12:38:14.950Z,795.00
2018-08-16T12:39:12.304Z,796.00
2018-08-16T12:40:15.707Z,793.00
2018-08-16T12:41:12.188Z,794.00
2018-08-16T12:42:12.397Z,795.00
2018-08-16T12:43:12.682Z,792.00
2018-08-16T12:44:16.497Z,790.00
2018-08-16T12:45:16.381Z,794.00
2018-08-16T12:46:14.063Z,795.00
2018-08-16T12:47:14.238Z,796.00
2018-08-16T12:48:14.870Z,795.00
2018-08-16T12:49:16.025Z,794.00
2018-08-16T12:50:22.124Z,793.00
2018-08-16T12:53:46.023Z,804.00
2018-08-16T12:54:43.018Z,792.00
2018-08-16T12:55:47.072Z,793.00
2018-08-16T12:56:44.188Z,793.00
2018-08-16T12:57:45.074Z,790.00
2018-08-16T12:58:53.654Z,793.00
2018-08-16T12:59:47.259Z,793.00
2018-08-16T13:00:59.615Z,792.00
2018-08-16T13:01:54.960Z,793.00
2018-08-16T13:03:04.062Z,793.00
2018-08-16T13:03:58.292Z,793.00
2018-08-16T13:04:59.397Z,793.00
2018-08-16T13:06:12.408Z,790.00
2018-08-16T13:06:57.822Z,793.00
2018-08-16T13:08:01.772Z,789.00
2018-08-16T13:24:42.499Z,804.00
2018-08-16T13:25:43.597Z,792.00
2018-08-16T13:26:46.488Z,787.00
2018-08-16T13:27:43.371Z,793.00
2018-08-16T13:28:43.611Z,788.00
2018-08-16T13:29:44.698Z,788.00
2018-08-16T13:30:44.866Z,788.00
2018-08-16T13:31:45.056Z,788.00
2018-08-16T13:32:45.165Z,788.00
2018-08-16T13:33:45.442Z,787.00
2018-08-16T13:34:45.593Z,787.00
2018-08-16T13:35:48.907Z,786.00
2018-08-16T13:36:46.074Z,787.00
2018-08-16T13:37:46.201Z,787.00
2018-08-16T13:38:46.454Z,781.00
2018-08-16T13:39:46.683Z,783.00
2018-08-16T13:40:46.932Z,786.00
2018-08-16T13:41:46.097Z,785.00
2018-08-16T13:42:47.280Z,786.00
2018-08-16T13:43:47.983Z,785.00
2018-08-16T13:44:53.737Z,780.00
2018-08-16T13:45:48.414Z,787.00
2018-08-16T13:46:48.742Z,787.00
2018-08-16T13:47:49.981Z,787.00
2018-08-16T13:48:50.532Z,787.00